Time;durP1;ratioP1;P1;durP2;ratioP2;P2;SDS_P1;SDS_P2;PMS_P1;PMS_P2;Temp;Humidity;BMP_temperature;BMP_pressure;BME280_temperature;BME280_humidity;BME280_pressure;Samples;Min_cycle;Max_cycle;Signal;HPM_P1;HPM_P2
2021/10/16 19:17:17;;;;;;;;;;;;;;;15.16;71.65;100662.03;2603741;36;20134;-49
2021/10/16 19:19:45;;;;;;;0.00;0.00;;;;;;;15.15;77.27;100666.41;2607522;31;19939;-51
2021/10/16 19:22:14;;;;;;;0.00;0.00;;;;;;;15.17;78.19;100658.50;2609167;31;20044;-51
2021/10/16 19:24:41;;;;;;;0.00;0.00;;;;;;;15.19;78.27;100652.22;2610602;31;20610;-53
2021/10/16 19:27:08;;;;;;;0.00;0.00;;;;;;;15.23;77.80;100661.69;2611184;31;20038;-48
2021/10/16 19:29:37;;;;;;;0.00;0.00;;;;;;;15.26;77.59;100658.09;2611446;31;20547;-49
2021/10/16 19:32:06;;;;;;;0.00;0.00;;;;;;;15.27;77.75;100654.53;2612503;31;20422;-54
2021/10/16 19:34:33;;;;;;;0.00;0.00;;;;;;;15.28;77.84;100654.47;2612141;31;20954;-48
2021/10/16 19:37:00;;;;;;;0.00;0.00;;;;;;;15.30;77.91;100649.13;2612211;36;20038;-51
2021/10/16 19:39:27;;;;;;;0.00;0.00;;;;;;;15.31;78.11;100646.47;2611528;36;20077;-51
2021/10/16 19:41:54;;;;;;;0.00;0.00;;;;;;;15.34;77.69;100649.88;2613687;31;20035;-51
2021/10/16 19:44:21;;;;;;;0.00;0.00;;;;;;;15.32;77.93;100642.91;2611694;31;20126;-53
2021/10/16 19:46:49;;;;;;;0.00;0.00;;;;;;;15.33;77.63;100649.00;2612699;31;20058;-51
2021/10/16 19:49:17;;;;;;;0.00;0.00;;;;;;;15.28;77.81;100636.06;2611434;31;20519;-51
2021/10/16 19:51:48;;;;;;;0.00;0.00;;;;;;;15.32;77.68;100642.06;2612595;31;20041;-51
2021/10/16 19:54:16;;;;;;;0.00;0.00;;;;;;;15.32;77.37;100645.53;2612926;31;20043;-48
2021/10/16 19:56:43;;;;;;;0.00;0.00;;;;;;;15.30;77.62;100639.47;2610787;31;20342;-53
2021/10/16 19:59:10;;;;;;;;;;;;;;;15.39;74.02;100642.63;2612493;31;20083;-51
2021/10/16 20:01:38;;;;;;;0.00;0.00;;;;;;;15.35;77.88;100643.69;2611780;31;19946;-54
2021/10/16 20:04:05;;;;;;;0.00;0.00;;;;;;;15.34;78.36;100640.19;2609255;31;20026;-54
2021/10/16 20:06:32;;;;;;;0.00;0.00;;;;;;;15.35;78.13;100646.31;2610889;31;20042;-53
2021/10/16 20:08:59;;;;;;;0.00;0.00;;;;;;;15.34;78.04;100644.59;2613052;31;20154;-52
2021/10/16 20:11:26;;;;;;;0.03;0.03;;;;;;;15.35;78.21;100647.16;2611309;31;20581;-52
2021/10/16 20:13:53;;;;;;;0.00;0.00;;;;;;;15.36;78.31;100642.75;2612322;31;20026;-49
2021/10/16 20:16:20;;;;;;;0.00;0.00;;;;;;;15.36;78.13;100653.28;2611633;31;20062;-53
2021/10/16 20:18:47;;;;;;;0.10;0.10;;;;;;;15.32;78.00;100640.28;2611304;31;20061;-53
2021/10/16 20:21:14;;;;;;;0.00;0.00;;;;;;;15.37;78.68;100644.47;2610545;31;20034;-54
2021/10/16 20:23:42;;;;;;;0.00;0.00;;;;;;;15.39;78.33;100634.72;2610845;31;20062;-50
2021/10/16 20:26:09;;;;;;;0.00;0.00;;;;;;;15.39;78.25;100634.72;2612020;31;20034;-50
2021/10/16 20:28:36;;;;;;;0.00;0.00;;;;;;;15.40;77.95;100633.81;2610094;31;20150;-51
2021/10/16 20:31:03;;;;;;;0.00;0.00;;;;;;;15.40;78.17;100631.19;2610600;31;20050;-51
2021/10/16 20:33:31;;;;;;;0.00;0.00;;;;;;;15.38;78.02;100623.34;2612117;31;20030;-51
2021/10/16 20:35:58;;;;;;;0.00;0.00;;;;;;;15.39;77.69;100629.47;2609016;36;20118;-51
2021/10/16 20:38:25;;;;;;;0.00;0.00;;;;;;;15.39;77.78;100624.22;2613124;31;20909;-54
2021/10/16 20:40:54;;;;;;;0.00;0.00;;;;;;;15.37;77.83;100624.28;2610368;31;20069;-53
2021/10/16 20:43:21;;;;;;;0.00;0.00;;;;;;;15.36;78.25;100616.44;2609107;31;20065;-52
2021/10/16 20:45:48;;;;;;;0.00;0.00;;;;;;;15.36;78.06;100619.94;2609511;31;20030;-53
2021/10/16 20:48:15;;;;;;;0.00;0.00;;;;;;;15.36;78.38;100621.69;2610352;31;20062;-52
2021/10/16 20:50:43;;;;;;;;;;;;;;;15.41;75.31;100620.59;2608827;31;20053;-51
2021/10/16 20:53:10;;;;;;;0.00;0.00;;;;;;;15.36;77.82;100617.31;2609368;31;19994;-53
2021/10/16 20:55:37;;;;;;;0.00;0.00;;;;;;;15.36;78.03;100611.16;2608484;31;20030;-53
2021/10/16 20:58:04;;;;;;;0.00;0.00;;;;;;;15.32;78.10;100611.34;2611655;31;20035;-51
2021/10/16 21:00:31;;;;;;;0.00;0.00;;;;;;;15.33;77.81;100612.19;2611185;31;20034;-51
2021/10/16 21:02:59;;;;;;;0.00;0.00;;;;;;;15.32;78.43;100608.69;2610997;31;20037;-53
2021/10/16 21:05:26;;;;;;;0.00;0.00;;;;;;;15.26;78.15;100595.81;2610562;31;20034;-53
2021/10/16 21:07:53;;;;;;;0.00;0.00;;;;;;;15.32;78.15;100600.81;2608519;31;20041;-53
2021/10/16 21:10:20;;;;;;;0.00;0.00;;;;;;;15.31;77.84;100601.72;2610522;31;20053;-52
2021/10/16 21:12:47;;;;;;;0.00;0.00;;;;;;;15.30;78.12;100600.00;2609447;36;20058;-54
2021/10/16 21:15:14;;;;;;;0.03;0.03;;;;;;;15.29;77.46;100590.41;2610333;31;20034;-53
2021/10/16 21:17:43;;;;;;;0.00;0.00;;;;;;;15.27;77.67;100592.25;2612560;31;20034;-54
2021/10/16 21:20:12;;;;;;;0.00;0.00;;;;;;;15.26;77.92;100590.56;2610916;31;20558;-53
2021/10/16 21:22:39;;;;;;;0.00;0.00;;;;;;;15.18;77.65;100571.63;2609615;31;20030;-49
2021/10/16 21:25:07;;;;;;;0.10;0.10;;;;;;;15.23;77.55;100580.16;2607358;31;20045;-53
2021/10/16 21:27:34;;;;;;;0.00;0.00;;;;;;;15.15;77.95;100569.09;2611415;31;20042;-52
2021/10/16 21:30:04;;;;;;;0.00;0.00;;;;;;;15.22;77.84;100567.94;2609349;36;20031;-53
2021/10/16 21:32:38;;;;;;;0.00;0.00;;;;;;;15.21;78.04;100582.00;2608854;31;20037;-52
2021/10/16 21:35:06;;;;;;;;;;;;;;;15.24;74.84;100576.59;2611271;31;20034;-52
2021/10/16 21:37:32;;;;;;;;;;;;;;;15.24;74.89;100568.72;2610190;31;19954;-50
2021/10/16 21:40:00;;;;;;;0.00;0.00;;;;;;;15.18;77.06;100571.63;2610687;31;19950;-52
2021/10/16 21:42:27;;;;;;;0.00;0.00;;;;;;;15.16;77.06;100572.63;2612288;31;20096;-51
2021/10/16 21:44:56;;;;;;;0.00;0.00;;;;;;;15.12;77.48;100571.88;2612353;31;20034;-54
2021/10/16 21:47:23;;;;;;;0.00;0.00;;;;;;;15.08;77.40;100559.78;2611032;31;20038;-52
2021/10/16 21:49:52;;;;;;;0.00;0.00;;;;;;;15.08;77.59;100564.19;2610408;36;20534;-51
2021/10/16 21:52:19;;;;;;;0.00;0.00;;;;;;;15.00;78.23;100549.63;2611543;31;20042;-53
2021/10/16 21:54:46;;;;;;;0.00;0.00;;;;;;;15.07;78.07;100562.50;2612278;31;20042;-54
2021/10/16 21:57:13;;;;;;;0.00;0.00;;;;;;;15.05;77.60;100562.53;2609380;36;20802;-53
2021/10/16 21:59:41;;;;;;;;;;;;;;;15.12;74.64;100561.38;2608771;31;20030;-52
2021/10/16 22:02:08;;;;;;;0.00;0.00;;;;;;;15.09;77.79;100561.47;2608734;31;19954;-53
2021/10/16 22:04:35;;;;;;;0.00;0.00;;;;;;;15.09;78.04;100566.75;2608819;36;20854;-53
2021/10/16 22:07:02;;;;;;;0.00;0.00;;;;;;;15.09;78.04;100556.22;2610737;31;20031;-53
2021/10/16 22:09:29;;;;;;;0.00;0.00;;;;;;;15.09;78.23;100556.22;2608537;31;20051;-53
2021/10/16 22:11:56;;;;;;;0.00;0.00;;;;;;;15.11;78.37;100554.41;2612489;31;20419;-54
2021/10/16 22:14:23;;;;;;;0.00;0.00;;;;;;;15.12;78.21;100552.63;2609641;31;20577;-53
2021/10/16 22:16:50;;;;;;;0.00;0.00;;;;;;;15.14;78.25;100551.63;2610264;31;20072;-53
2021/10/16 22:19:18;;;;;;;0.00;0.00;;;;;;;15.16;77.88;100549.78;2611502;36;20031;-54
2021/10/16 22:21:45;;;;;;;0.00;0.00;;;;;;;15.15;76.87;100550.69;2610393;31;20706;-54
2021/10/16 22:24:11;;;;;;;0.00;0.00;;;;;;;15.17;77.67;100548.88;2610670;31;20031;-53
2021/10/16 22:26:43;;;;;;;0.00;0.00;;;;;;;15.18;77.34;100540.03;2609254;31;20034;-53
2021/10/16 22:29:11;;;;;;;0.00;0.00;;;;;;;15.18;77.45;100542.69;2612849;31;20577;-54
2021/10/16 22:31:38;;;;;;;0.00;0.00;;;;;;;15.19;77.61;100536.50;2610810;31;20058;-50
2021/10/16 22:34:05;;;;;;;0.00;0.00;;;;;;;15.20;77.00;100538.19;2612080;31;20064;-54
2021/10/16 22:36:32;;;;;;;0.00;0.00;;;;;;;15.18;77.71;100524.25;2612248;31;20042;-52
2021/10/16 22:38:59;;;;;;;0.00;0.00;;;;;;;15.22;77.49;100525.84;2609836;36;20038;-53
2021/10/16 22:41:26;;;;;;;0.00;0.00;;;;;;;15.24;77.44;100528.41;2609496;31;20062;-54
2021/10/16 22:43:53;;;;;;;0.00;0.00;;;;;;;15.25;76.49;100530.94;2609127;36;20128;-53
2021/10/16 22:46:21;;;;;;;0.00;0.00;;;;;;;15.28;77.45;100522.94;2610761;31;20042;-50
2021/10/16 22:48:48;;;;;;;0.00;0.00;;;;;;;15.29;77.48;100518.53;2610388;31;20038;-50
2021/10/16 22:51:16;;;;;;;0.00;0.00;;;;;;;15.31;77.62;100524.59;2610485;31;20037;-53
2021/10/16 22:53:43;;;;;;;0.00;0.00;;;;;;;15.32;76.52;100518.38;2611453;31;20046;-52
2021/10/16 22:56:10;;;;;;;0.00;0.00;;;;;;;15.34;76.84;100513.91;2612579;31;20109;-50
2021/10/16 22:58:38;;;;;;;0.08;0.08;;;;;;;15.35;76.79;100509.50;2610308;36;20059;-54
2021/10/16 23:01:05;;;;;;;0.00;0.00;;;;;;;15.28;76.19;100495.78;2610799;31;20109;-52
2021/10/16 23:03:33;;;;;;;0.00;0.00;;;;;;;15.38;76.65;100499.69;2608903;31;20525;-53
2021/10/16 23:06:00;;;;;;;0.00;0.00;;;;;;;15.39;76.71;100503.16;2611631;31;20042;-52
2021/10/16 23:08:27;;;;;;;0.00;0.00;;;;;;;15.39;76.89;100498.75;2612311;31;20069;-54
2021/10/16 23:10:54;;;;;;;0.00;0.00;;;;;;;15.41;76.97;100501.31;2610110;31;20676;-53
2021/10/16 23:13:21;;;;;;;0.00;0.00;;;;;;;15.40;76.70;100499.59;2611610;31;20034;-50
2021/10/16 23:15:50;;;;;;;0.00;0.00;;;;;;;15.46;76.71;100501.94;2610100;31;20030;-52
2021/10/16 23:18:17;;;;;;;0.00;0.00;;;;;;;15.46;76.92;100494.06;2609213;31;20068;-52
2021/10/16 23:20:46;;;;;;;0.00;0.00;;;;;;;15.48;76.86;100492.22;2607668;36;20609;-54
2021/10/16 23:23:14;;;;;;;0.00;0.00;;;;;;;15.48;76.56;100487.81;2607661;36;20070;-53
2021/10/16 23:25:41;;;;;;;0.00;0.00;;;;;;;15.49;76.37;100486.88;2612315;31;20035;-53
2021/10/16 23:28:11;;;;;;;0.00;0.00;;;;;;;15.50;76.29;100483.31;2609733;36;20034;-54
2021/10/16 23:30:40;;;;;;;0.00;0.00;;;;;;;15.53;75.64;100482.34;2610705;31;20557;-54
2021/10/16 23:33:07;;;;;;;0.00;0.00;;;;;;;15.53;76.52;100482.34;2610895;31;20061;-53
2021/10/16 23:35:34;;;;;;;0.00;0.00;;;;;;;15.53;75.75;100484.97;2611847;31;20035;-53
2021/10/16 23:38:02;;;;;;;0.00;0.00;;;;;;;15.53;76.00;100487.59;2613276;31;20038;-54
2021/10/16 23:40:30;;;;;;;0.00;0.00;;;;;;;15.56;76.50;100492.72;2609495;36;20034;-50
2021/10/16 23:42:57;;;;;;;0.10;0.10;;;;;;;15.55;76.31;100488.38;2609119;31;20034;-55
2021/10/16 23:45:25;;;;;;;;;;;;;;;15.63;74.29;100488.91;2612558;31;20042;-51
2021/10/16 23:47:53;;;;;;;0.00;0.00;;;;;;;15.57;75.79;100483.91;2611631;31;19950;-54
2021/10/16 23:50:23;;;;;;;0.00;0.00;;;;;;;15.60;75.66;100491.66;2611151;31;20031;-54
2021/10/16 23:52:51;;;;;;;0.00;0.00;;;;;;;15.59;76.02;100492.56;2610547;36;20031;-51
2021/10/16 23:55:19;;;;;;;0.00;0.00;;;;;;;15.60;75.95;100477.63;2613183;31;20041;-52
2021/10/16 23:57:46;;;;;;;;;;;;;;;15.65;74.26;100487.06;2609717;36;20067;-51
